Lehigh Valley International Airport Allentown US
ICAO: KABE
IATA: ABE
Category: Medium
Scheduled Services: Yes

Elevation: 393 ft
TransAlt. 18000 ft.

Airport Communications:
APP/DEP:118.2
ATIS:126.975
CLNC DEL:124.05
GND:121.9
WILLIAMSPORT RDO:117.5
TWR:120.5
UNICOM:122.95

KABE Zoom In..

Runways:

(A) RW 06 length 7599 ft width 150 ft
ILS 110.70 / hdg 63

(B) RW 13 length 5797 ft width 150 ft
ILS 111.90 / hdg 135

(C) RW 24 length 7599 ft width 150 ft
ILS 108.55 / hdg 243

(D) RW 31 length 5797 ft width 150 ft
---- / hdg 315

Location; KABE
Day. 13 / Time. 12.51 Zulu
* Altimeter: 30.11
* Temperature: 24° c. 75.2°f.
* Wind from: 090° Speed 05 kn.
Dewpoint: 17° c.
Visibility: 10 Statute Miles.
Clouds: Overcast 2300 ft.

KABE 131251Z 09005KT 10SM OVC023 24/17 A3011 RMK AO2 LTG DSNT SE SLP194 T02390167

Going to: --> -->


Wind From 090°
Speed 05 kn.

 
 
jpsmedia worldairports.se 2020   terms of use